Time;durP1;ratioP1;P1;durP2;ratioP2;P2;SDS_P1;SDS_P2;PMS_P1;PMS_P2;Temp;Humidity;BMP_temperature;BMP_pressure;BME280_temperature;BME280_humidity;BME280_pressure;Samples;Min_cycle;Max_cycle;Signal;HPM_P1;HPM_P2
2023/09/22 00:00:14;;;;;;;9.40;9.10;;;16.70;99.90;;;;;;6256558;22;20201;-79
2023/09/22 00:02:42;;;;;;;9.38;9.07;;;16.60;99.90;;;;;;6261968;22;20242;-79
2023/09/22 00:05:10;;;;;;;9.60;9.30;;;16.50;99.90;;;;;;6260468;22;20285;-80
2023/09/22 00:07:37;;;;;;;10.00;9.70;;;16.40;99.90;;;;;;6260762;22;20210;-79
2023/09/22 00:10:06;;;;;;;9.77;9.48;;;16.40;99.90;;;;;;6260346;22;20209;-79
2023/09/22 00:12:34;;;;;;;9.90;9.60;;;16.40;99.90;;;;;;6259266;22;20282;-79
2023/09/22 00:15:03;;;;;;;9.63;9.32;;;16.40;99.90;;;;;;6260236;22;20214;-79
2023/09/22 00:17:30;;;;;;;9.60;9.30;;;16.40;99.90;;;;;;6260644;22;20213;-79
2023/09/22 00:19:57;;;;;;;9.70;9.40;;;16.40;99.90;;;;;;6263619;22;20190;-79
2023/09/22 00:22:24;;;;;;;9.60;9.30;;;16.40;99.90;;;;;;6264839;22;20198;-80
2023/09/22 00:24:51;;;;;;;9.50;9.20;;;16.40;99.90;;;;;;6264791;22;20234;-80
2023/09/22 00:27:19;;;;;;;9.27;8.98;;;16.40;99.90;;;;;;6263321;22;20210;-79
2023/09/22 00:29:47;;;;;;;9.50;9.20;;;16.40;99.90;;;;;;6262674;22;20198;-80
2023/09/22 00:32:14;;;;;;;9.68;9.38;;;16.30;99.90;;;;;;6260412;22;20206;-80
2023/09/22 00:34:41;;;;;;;9.60;9.30;;;16.40;99.90;;;;;;6261854;22;20194;-80
2023/09/22 00:37:09;;;;;;;9.82;9.52;;;16.30;99.90;;;;;;6261833;22;20190;-79
2023/09/22 00:39:36;;;;;;;9.90;9.60;;;16.20;99.90;;;;;;6261381;22;20226;-79
2023/09/22 00:42:08;;;;;;;9.80;9.50;;;16.20;99.90;;;;;;6260893;22;20205;-79
2023/09/22 00:44:35;;;;;;;9.98;9.68;;;16.20;99.90;;;;;;6260523;22;20226;-79
2023/09/22 00:47:04;;;;;;;10.02;9.73;;;16.20;99.90;;;;;;6261249;22;20214;-79
2023/09/22 00:49:32;;;;;;;10.40;10.10;;;16.20;99.90;;;;;;6262035;22;20201;-79
2023/09/22 00:51:59;;;;;;;9.98;9.68;;;16.20;99.90;;;;;;6260614;22;20187;-80
2023/09/22 00:54:27;;;;;;;9.90;9.60;;;16.30;99.90;;;;;;6261270;22;20198;-80
2023/09/22 00:56:55;;;;;;;10.27;9.98;;;16.30;99.90;;;;;;6261295;22;20206;-80
2023/09/22 00:59:22;;;;;;;10.20;9.90;;;16.30;99.90;;;;;;6262062;22;20190;-79
2023/09/22 01:01:49;;;;;;;9.93;9.63;;;16.30;99.90;;;;;;6262007;22;20190;-79
2023/09/22 01:04:20;;;;;;;9.70;9.40;;;16.30;99.90;;;;;;6262394;22;20206;-80
2023/09/22 01:06:47;;;;;;;9.60;9.30;;;16.30;99.90;;;;;;6261862;22;20300;-79
2023/09/22 01:09:14;;;;;;;9.45;9.15;;;16.30;99.90;;;;;;6262020;22;20202;-79
2023/09/22 01:11:45;;;;;;;9.63;9.32;;;16.20;99.90;;;;;;6261292;22;20194;-79
2023/09/22 01:14:12;;;;;;;9.57;9.27;;;16.20;99.90;;;;;;6261207;22;20240;-80
2023/09/22 01:16:39;;;;;;;9.65;9.35;;;16.20;99.90;;;;;;6262103;22;20210;-80
2023/09/22 01:19:14;;;;;;;10.00;9.70;;;16.10;99.90;;;;;;6261432;22;20197;-80
2023/09/22 01:21:42;;;;;;;10.30;10.00;;;16.10;99.90;;;;;;6261056;22;20189;-80
2023/09/22 01:24:12;;;;;;;10.15;9.85;;;16.10;99.90;;;;;;6261103;22;20198;-79
2023/09/22 01:26:39;;;;;;;10.00;9.70;;;16.10;99.90;;;;;;6261174;22;20213;-79
2023/09/22 01:29:06;;;;;;;9.88;9.57;;;16.00;99.90;;;;;;6260844;22;20225;-79
2023/09/22 01:31:34;;;;;;;9.90;9.60;;;16.00;99.90;;;;;;6260863;22;20194;-80
2023/09/22 01:34:02;;;;;;;9.70;9.40;;;16.00;99.90;;;;;;6259699;22;20198;-79
2023/09/22 01:36:29;;;;;;;9.82;9.52;;;16.00;99.90;;;;;;6260614;22;20212;-80
2023/09/22 01:39:00;;;;;;;10.02;9.73;;;15.90;99.90;;;;;;6260647;22;20202;-80
2023/09/22 01:41:27;;;;;;;9.77;9.48;;;15.90;99.90;;;;;;6259632;22;20207;-80
2023/09/22 01:43:54;;;;;;;9.85;9.55;;;15.90;99.90;;;;;;6259578;22;20289;-79
2023/09/22 01:46:21;;;;;;;9.88;9.57;;;15.90;99.90;;;;;;6258248;22;20224;-78
2023/09/22 01:48:48;;;;;;;9.77;9.48;;;15.90;99.90;;;;;;6256248;22;20214;-79
2023/09/22 01:51:17;;;;;;;9.60;9.30;;;15.90;99.90;;;;;;6255374;22;20214;-79
2023/09/22 01:53:44;;;;;;;9.60;9.30;;;15.80;99.90;;;;;;6256493;22;20210;-79
2023/09/22 07:58:46;;;;;;;9.00;8.70;;;15.10;99.90;;;;;;6256308;22;20209;-80
2023/09/22 08:01:15;;;;;;;9.00;8.70;;;15.10;99.90;;;;;;6292773;22;20194;-80
2023/09/22 08:03:43;;;;;;;9.10;8.80;;;15.20;99.90;;;;;;6292311;22;20260;-80
2023/09/22 08:06:11;;;;;;;9.07;8.77;;;15.20;99.90;;;;;;6292172;22;20208;-80
2023/09/22 08:08:38;;;;;;;9.10;8.80;;;15.10;99.90;;;;;;6291883;22;20205;-80
2023/09/22 08:11:05;;;;;;;9.13;8.82;;;15.20;99.90;;;;;;6292738;22;20201;-80
2023/09/22 08:13:33;;;;;;;9.32;9.02;;;15.30;99.90;;;;;;6292109;22;20206;-80
2023/09/22 08:16:04;;;;;;;9.15;8.85;;;15.30;99.90;;;;;;6292201;22;20189;-80
2023/09/22 08:18:37;;;;;;;9.48;9.18;;;15.40;99.90;;;;;;6292311;22;20201;-80
2023/09/22 08:21:04;;;;;;;9.25;8.95;;;15.40;99.90;;;;;;6291626;22;20271;-80
2023/09/22 08:23:32;;;;;;;9.00;8.73;;;15.40;99.90;;;;;;6292079;22;20204;-80
2023/09/22 08:25:59;;;;;;;9.10;8.80;;;15.40;99.90;;;;;;6293595;22;20246;-80
2023/09/22 08:28:27;;;;;;;9.50;9.20;;;15.50;99.90;;;;;;6293004;22;20241;-80
2023/09/22 08:30:56;;;;;;;9.30;9.00;;;15.60;99.90;;;;;;6292654;22;20211;-80
2023/09/22 08:33:25;;;;;;;9.20;8.90;;;15.60;99.90;;;;;;6292569;22;20201;-80
2023/09/22 08:35:52;;;;;;;9.40;9.10;;;15.50;99.90;;;;;;6293058;22;20289;-81
2023/09/22 08:38:19;;;;;;;9.30;9.00;;;15.60;99.90;;;;;;6293006;22;20205;-79
2023/09/22 08:40:47;;;;;;;9.30;9.00;;;15.60;99.90;;;;;;6291732;22;20217;-81
2023/09/22 08:43:14;;;;;;;9.18;8.88;;;15.60;99.90;;;;;;6291454;22;20201;-80
2023/09/22 08:45:41;;;;;;;8.70;8.50;;;15.60;99.90;;;;;;6292377;22;20209;-80
2023/09/22 08:48:09;;;;;;;9.13;8.82;;;15.60;99.90;;;;;;6292519;22;20216;-80
2023/09/22 08:50:39;;;;;;;9.10;8.80;;;15.60;99.90;;;;;;6291554;22;20695;-80
2023/09/22 08:53:06;;;;;;;9.40;9.10;;;15.50;99.90;;;;;;6291035;22;20209;-80
2023/09/22 08:55:34;;;;;;;9.18;8.88;;;15.50;99.90;;;;;;6292134;22;20198;-80
2023/09/22 08:58:01;;;;;;;9.02;8.73;;;15.50;99.90;;;;;;6291099;22;20209;-80
2023/09/22 09:00:29;;;;;;;9.00;8.70;;;15.50;99.90;;;;;;6291203;22;20193;-80
2023/09/22 09:02:59;;;;;;;9.20;8.90;;;15.50;99.90;;;;;;6290779;22;20256;-80
2023/09/22 09:05:28;;;;;;;9.00;8.70;;;15.40;99.90;;;;;;6290854;22;20244;-80
2023/09/22 09:08:10;;;;;;;8.98;8.68;;;15.40;99.90;;;;;;6290726;22;20209;-80
2023/09/22 09:10:38;;;;;;;9.00;8.70;;;15.40;99.90;;;;;;6289969;22;20190;-80
2023/09/22 09:13:07;;;;;;;9.20;8.90;;;15.40;99.90;;;;;;6289983;22;20205;-80
2023/09/22 09:15:44;;;;;;;9.02;8.73;;;15.40;99.90;;;;;;6290571;22;20233;-80
2023/09/22 09:18:13;;;;;;;9.25;8.95;;;15.40;99.90;;;;;;6290212;22;20216;-80
2023/09/22 09:20:42;;;;;;;9.02;8.73;;;15.40;99.90;;;;;;6290891;22;20205;-80
2023/09/22 09:23:18;;;;;;;9.40;9.10;;;15.40;99.90;;;;;;6290739;22;21396;-80
2023/09/22 09:25:48;;;;;;;9.15;8.85;;;15.40;99.90;;;;;;6290244;22;20272;-80
2023/09/22 09:28:17;;;;;;;9.23;8.93;;;15.40;99.90;;;;;;6289599;22;20279;-80
2023/09/22 09:30:52;;;;;;;9.55;9.25;;;15.40;99.90;;;;;;6289782;22;20228;-80
2023/09/22 09:33:21;;;;;;;9.27;8.98;;;15.40;99.90;;;;;;6289960;22;20224;-80
2023/09/22 09:35:48;;;;;;;9.43;9.13;;;15.40;99.90;;;;;;6290030;22;20205;-80
2023/09/22 09:38:18;;;;;;;9.30;9.00;;;15.40;99.90;;;;;;6289194;22;20238;-80
2023/09/22 09:40:45;;;;;;;9.20;8.90;;;15.40;99.90;;;;;;6288973;22;20192;-80
2023/09/22 09:43:14;;;;;;;9.10;8.80;;;15.50;99.90;;;;;;6289377;22;20194;-81
2023/09/22 09:45:46;;;;;;;9.32;9.02;;;15.50;99.90;;;;;;6288872;22;20277;-80
2023/09/22 09:48:16;;;;;;;9.77;9.48;;;15.40;99.90;;;;;;6289074;22;20240;-80
2023/09/22 09:50:47;;;;;;;9.60;9.30;;;15.40;99.90;;;;;;6289151;22;20265;-80
2023/09/22 09:53:38;;;;;;;9.70;9.40;;;15.40;99.90;;;;;;6288795;22;20208;-80
2023/09/22 09:56:06;;;;;;;9.88;9.57;;;15.40;99.90;;;;;;6288971;22;20192;-80
2023/09/22 09:58:38;;;;;;;9.70;9.40;;;15.30;99.90;;;;;;6289663;22;20209;-80
2023/09/22 10:01:06;;;;;;;9.13;8.82;;;15.30;99.90;;;;;;6292736;22;20193;-79
2023/09/22 10:03:35;;;;;;;9.38;9.07;;;15.30;99.90;;;;;;6292209;22;20189;-80
2023/09/22 10:06:06;;;;;;;9.20;8.90;;;15.30;99.90;;;;;;6289382;22;20229;-79
2023/09/22 10:08:36;;;;;;;9.10;8.80;;;15.20;99.90;;;;;;6289320;22;20233;-80
2023/09/22 10:11:07;;;;;;;9.38;9.07;;;15.20;99.90;;;;;;6289841;22;20200;-80
2023/09/22 10:13:36;;;;;;;9.05;8.75;;;15.10;99.90;;;;;;6288737;22;20196;-80
2023/09/22 10:16:05;;;;;;;9.30;9.00;;;15.10;99.90;;;;;;6293896;22;20197;-79
2023/09/22 10:18:48;;;;;;;9.13;8.82;;;15.10;99.90;;;;;;6295978;22;20304;-80
2023/09/22 10:21:46;;;;;;;8.80;8.60;;;15.10;99.90;;;;;;6295160;22;20189;-80
2023/09/22 10:24:24;;;;;;;8.40;8.20;;;15.10;99.90;;;;;;6293708;22;20243;-80
2023/09/22 10:27:13;;;;;;;8.45;8.25;;;15.10;99.90;;;;;;6290371;22;20228;-80
2023/09/22 10:29:52;;;;;;;8.40;8.20;;;15.20;99.90;;;;;;6290318;22;20202;-80
2023/09/22 10:32:27;;;;;;;8.20;8.00;;;15.20;99.90;;;;;;6290387;22;20197;-80
2023/09/22 10:34:57;;;;;;;8.20;8.00;;;15.20;99.90;;;;;;6290767;22;20276;-80
2023/09/22 10:37:26;;;;;;;8.27;8.07;;;15.30;99.90;;;;;;6294592;22;20213;-80
2023/09/22 10:39:58;;;;;;;8.60;8.40;;;15.30;99.90;;;;;;6293250;22;20201;-80
2023/09/22 10:42:27;;;;;;;8.55;8.35;;;15.30;99.90;;;;;;6296573;22;20189;-80
2023/09/22 10:44:59;;;;;;;8.50;8.30;;;15.40;99.90;;;;;;6297318;22;20201;-80
2023/09/22 10:47:38;;;;;;;9.13;8.82;;;15.50;99.90;;;;;;6297595;22;20233;-80
2023/09/22 10:50:16;;;;;;;9.20;8.90;;;15.40;99.90;;;;;;6291442;22;20201;-79
2023/09/22 10:52:55;;;;;;;8.88;8.68;;;15.40;99.90;;;;;;6290523;22;20240;-79
2023/09/22 10:55:35;;;;;;;8.70;8.50;;;15.50;99.90;;;;;;6289600;22;20224;-80
2023/09/22 10:58:05;;;;;;;9.13;8.85;;;15.50;99.90;;;;;;6289355;22;20220;-80
2023/09/22 11:00:35;;;;;;;8.90;8.70;;;15.50;99.90;;;;;;6290192;22;20268;-80
2023/09/22 11:03:09;;;;;;;8.93;8.70;;;15.60;99.90;;;;;;6291306;22;20216;-80
2023/09/22 11:05:37;;;;;;;8.82;8.63;;;15.60;99.90;;;;;;6288887;22;20194;-80
2023/09/22 11:08:13;;;;;;;9.18;8.88;;;15.70;99.90;;;;;;6289162;22;20200;-80
2023/09/22 11:10:43;;;;;;;9.50;9.20;;;15.60;99.90;;;;;;6289955;22;20256;-79
2023/09/22 11:13:10;;;;;;;9.15;8.85;;;15.50;99.90;;;;;;6288654;22;20232;-80
2023/09/22 11:15:48;;;;;;;9.00;8.70;;;15.50;99.90;;;;;;6289848;22;20224;-80
2023/09/22 11:18:21;;;;;;;8.88;8.68;;;15.50;99.90;;;;;;6289520;22;20224;-80
2023/09/22 11:20:48;;;;;;;9.20;8.90;;;15.40;99.90;;;;;;6289603;22;20204;-80
2023/09/22 11:23:16;;;;;;;9.20;8.90;;;15.30;99.90;;;;;;6293017;22;20196;-81
2023/09/22 11:25:55;;;;;;;9.15;8.85;;;15.30;99.90;;;;;;6298203;22;20229;-80
2023/09/22 11:28:22;;;;;;;9.45;9.15;;;15.30;99.90;;;;;;6298153;22;20283;-80
2023/09/22 11:30:51;;;;;;;9.68;9.38;;;15.30;99.90;;;;;;6295652;22;20193;-80
2023/09/22 11:33:18;;;;;;;9.82;9.52;;;15.30;99.90;;;;;;6290400;22;20249;-80
2023/09/22 11:35:45;;;;;;;9.77;9.48;;;15.30;99.90;;;;;;6288943;22;20292;-79
2023/09/22 11:38:27;;;;;;;10.07;9.77;;;15.30;99.90;;;;;;6289409;22;20210;-79
2023/09/22 11:41:07;;;;;;;9.57;9.27;;;15.30;99.90;;;;;;6288892;22;20198;-80
2023/09/22 11:43:38;;;;;;;9.40;9.10;;;15.30;99.90;;;;;;6289061;22;20277;-80
2023/09/22 11:46:11;;;;;;;8.85;8.65;;;15.30;99.90;;;;;;6290402;22;20201;-80
2023/09/22 11:49:00;;;;;;;9.57;9.27;;;15.40;99.90;;;;;;6292934;22;20209;-80
2023/09/22 11:51:50;;;;;;;9.65;9.35;;;15.40;99.90;;;;;;6283479;22;20201;-80
2023/09/22 11:54:19;;;;;;;9.60;9.30;;;15.40;99.90;;;;;;6292614;22;20261;-80
2023/09/22 11:56:50;;;;;;;9.50;9.20;;;15.40;99.90;;;;;;6292096;22;20241;-80
2023/09/22 11:59:19;;;;;;;9.50;9.20;;;15.50;99.90;;;;;;6291044;22;20198;-80
2023/09/22 12:01:47;;;;;;;10.00;9.70;;;15.60;99.90;;;;;;6291258;22;20201;-80
2023/09/22 12:04:16;;;;;;;9.52;9.23;;;15.60;99.90;;;;;;6291534;22;20205;-80
2023/09/22 12:06:43;;;;;;;9.70;9.40;;;15.70;99.90;;;;;;6291131;22;20193;-80
2023/09/22 12:09:11;;;;;;;9.50;9.20;;;15.70;99.90;;;;;;6291766;22;20190;-80
2023/09/22 12:11:39;;;;;;;9.80;9.50;;;15.90;99.90;;;;;;6291987;22;20201;-80
2023/09/22 12:14:08;;;;;;;9.80;9.50;;;15.90;99.90;;;;;;6292034;22;20205;-80
2023/09/22 12:16:35;;;;;;;9.73;9.43;;;16.00;99.90;;;;;;6291528;22;20208;-80
2023/09/22 12:19:03;;;;;;;9.85;9.55;;;16.10;99.90;;;;;;6292623;22;20193;-80
2023/09/22 12:21:31;;;;;;;9.98;9.68;;;16.10;99.90;;;;;;6293027;22;20201;-80
2023/09/22 12:23:58;;;;;;;9.85;9.55;;;16.20;99.90;;;;;;6293759;22;20217;-80
2023/09/22 12:26:26;;;;;;;10.10;9.80;;;16.20;99.90;;;;;;6293558;22;20259;-81
2023/09/22 12:28:53;;;;;;;10.38;10.07;;;16.20;99.90;;;;;;6293660;22;20220;-80
2023/09/22 12:31:22;;;;;;;10.15;9.85;;;16.10;99.90;;;;;;6292181;22;20248;-80
2023/09/22 12:33:49;;;;;;;10.32;10.02;;;16.10;99.90;;;;;;6292320;22;20196;-80
2023/09/22 12:36:18;;;;;;;10.00;9.70;;;16.10;99.90;;;;;;6291051;22;20197;-80
2023/09/22 12:38:46;;;;;;;10.30;10.00;;;16.10;99.90;;;;;;6288987;22;20243;-80
2023/09/22 12:41:13;;;;;;;10.20;9.90;;;16.10;99.90;;;;;;6289615;22;20206;-79
2023/09/22 12:43:40;;;;;;;10.10;9.80;;;16.10;99.90;;;;;;6290634;22;20205;-81
2023/09/22 12:46:09;;;;;;;10.25;9.95;;;16.10;99.90;;;;;;6290012;22;20202;-82
2023/09/22 12:48:39;;;;;;;10.25;9.95;;;16.10;99.90;;;;;;6288260;22;20211;-79
2023/09/22 12:51:07;;;;;;;10.50;10.20;;;16.10;99.90;;;;;;6289292;22;20240;-79
2023/09/22 12:53:35;;;;;;;10.20;9.90;;;16.10;99.90;;;;;;6289010;22;20198;-79
2023/09/22 12:56:02;;;;;;;10.45;10.15;;;16.10;99.90;;;;;;6289003;22;20198;-79
2023/09/22 12:58:30;;;;;;;10.40;10.10;;;16.20;99.90;;;;;;6289090;22;20237;-79
2023/09/22 13:00:58;;;;;;;10.50;10.20;;;16.10;99.90;;;;;;6288947;22;20233;-79
2023/09/22 13:03:25;;;;;;;10.40;10.10;;;16.10;99.90;;;;;;6289013;22;20198;-79
2023/09/22 13:05:54;;;;;;;10.48;10.18;;;16.10;99.90;;;;;;6289338;22;20255;-79
2023/09/22 13:08:22;;;;;;;10.50;10.20;;;16.00;99.90;;;;;;6289029;22;20206;-78
2023/09/22 13:10:49;;;;;;;10.60;10.30;;;16.00;99.90;;;;;;6288393;22;20213;-79
2023/09/22 13:13:17;;;;;;;10.27;9.98;;;16.00;99.90;;;;;;6288800;22;20213;-79
2023/09/22 13:15:45;;;;;;;10.00;9.70;;;16.00;99.90;;;;;;6288927;22;20255;-79
2023/09/22 13:18:13;;;;;;;10.25;9.95;;;16.00;99.90;;;;;;6288850;22;20197;-80
2023/09/22 13:20:41;;;;;;;10.25;9.95;;;16.00;99.90;;;;;;6289774;22;20243;-80
2023/09/22 13:23:10;;;;;;;10.10;9.80;;;16.10;99.90;;;;;;6289536;22;20200;-79
2023/09/22 13:25:38;;;;;;;10.15;9.85;;;16.10;99.90;;;;;;6291648;22;20245;-79
2023/09/22 13:28:07;;;;;;;10.07;9.77;;;16.10;99.90;;;;;;6289821;22;20205;-80
2023/09/22 13:30:39;;;;;;;10.40;10.10;;;16.20;99.90;;;;;;6294175;22;20197;-81
2023/09/22 13:33:06;;;;;;;10.18;9.88;;;16.10;99.90;;;;;;6294662;22;20255;-79
2023/09/22 13:35:34;;;;;;;10.40;10.10;;;16.10;99.90;;;;;;6294571;22;20204;-79
2023/09/22 13:38:05;;;;;;;10.38;10.07;;;16.10;99.90;;;;;;6294802;22;20204;-79
2023/09/22 13:40:34;;;;;;;9.82;9.52;;;16.10;99.90;;;;;;6292779;22;20190;-79
2023/09/22 13:43:01;;;;;;;10.40;10.10;;;16.10;99.90;;;;;;6289316;22;20249;-79
2023/09/22 13:45:35;;;;;;;10.45;10.15;;;16.20;99.90;;;;;;6288536;22;20224;-79
2023/09/22 13:48:03;;;;;;;10.50;10.20;;;16.20;99.90;;;;;;6288163;22;20362;-79
2023/09/22 13:50:31;;;;;;;10.40;10.10;;;16.20;99.90;;;;;;6288721;22;20225;-79
2023/09/22 13:52:58;;;;;;;10.48;10.18;;;16.30;99.90;;;;;;6288944;22;20190;-79
2023/09/22 13:55:25;;;;;;;10.27;9.98;;;16.30;99.90;;;;;;6288301;22;20237;-80
2023/09/22 19:59:07;;;;;;;9.87;9.57;;;13.00;99.90;;;;;;6284472;22;20228;-79
2023/09/22 20:01:34;;;;;;;9.73;9.43;;;13.00;99.90;;;;;;6320626;22;20196;-79
2023/09/22 20:04:02;;;;;;;9.90;9.60;;;12.90;99.90;;;;;;6321798;22;20206;-80
2023/09/22 20:06:30;;;;;;;10.00;9.70;;;12.90;99.90;;;;;;6324426;22;20189;-80
2023/09/22 20:08:57;;;;;;;9.87;9.57;;;12.90;99.90;;;;;;6309215;22;20209;-80
2023/09/22 20:11:25;;;;;;;9.90;9.60;;;12.90;99.90;;;;;;6295110;22;20263;-80
2023/09/22 20:13:52;;;;;;;10.00;9.70;;;12.90;99.90;;;;;;6294623;22;20201;-80
2023/09/22 20:16:25;;;;;;;9.73;9.43;;;13.00;99.90;;;;;;6295013;22;20241;-80
2023/09/22 20:18:54;;;;;;;9.90;9.60;;;13.00;99.90;;;;;;6295179;22;20198;-80
2023/09/22 20:21:21;;;;;;;9.83;9.53;;;13.00;99.90;;;;;;6295329;22;20194;-81
2023/09/22 20:23:48;;;;;;;9.90;9.60;;;13.10;99.90;;;;;;6295452;22;20197;-81
2023/09/22 20:26:15;;;;;;;9.80;9.50;;;13.10;99.90;;;;;;6295745;22;20190;-80
2023/09/22 20:28:43;;;;;;;9.80;9.50;;;13.10;99.90;;;;;;6295460;22;20197;-80
2023/09/22 20:31:10;;;;;;;9.67;9.37;;;13.10;99.90;;;;;;6294542;22;20219;-80
2023/09/22 20:33:38;;;;;;;9.77;9.47;;;13.10;99.90;;;;;;6289933;22;20228;-79
2023/09/22 20:36:10;;;;;;;10.00;9.70;;;13.00;99.90;;;;;;6290354;22;20197;-80
2023/09/22 20:38:39;;;;;;;9.90;9.60;;;13.00;99.90;;;;;;6290578;22;20207;-78
2023/09/22 20:41:06;;;;;;;9.80;9.50;;;12.90;99.90;;;;;;6289685;22;20194;-80
2023/09/22 20:43:36;;;;;;;9.87;9.57;;;12.90;99.90;;;;;;6289808;22;20205;-80
2023/09/22 20:46:06;;;;;;;9.90;9.60;;;13.00;99.90;;;;;;6290153;22;20193;-80
2023/09/22 20:48:33;;;;;;;9.70;9.40;;;13.00;99.90;;;;;;6290042;22;20215;-79
2023/09/22 20:51:03;;;;;;;9.70;9.40;;;13.00;99.90;;;;;;6290809;22;20205;-80
2023/09/22 20:53:31;;;;;;;9.70;9.40;;;13.10;99.90;;;;;;6290424;22;20259;-79
2023/09/22 20:55:59;;;;;;;10.00;9.70;;;13.10;99.90;;;;;;6290021;22;20208;-79
2023/09/22 20:58:27;;;;;;;9.80;9.50;;;13.10;99.90;;;;;;6290900;22;20214;-80
2023/09/22 21:00:54;;;;;;;9.77;9.47;;;13.10;99.90;;;;;;6265704;22;20221;-80
2023/09/22 21:03:21;;;;;;;10.10;9.80;;;13.20;99.90;;;;;;6263651;22;20207;-80
2023/09/22 21:05:48;;;;;;;10.10;9.80;;;13.30;99.90;;;;;;6263888;22;20186;-80
2023/09/22 21:08:17;;;;;;;9.80;9.50;;;13.30;99.90;;;;;;6263696;22;20198;-80
2023/09/22 21:10:44;;;;;;;9.73;9.43;;;13.30;99.90;;;;;;6262913;22;20225;-80
2023/09/22 21:13:11;;;;;;;10.33;10.03;;;13.40;99.90;;;;;;6263080;22;20194;-80
2023/09/22 21:15:38;;;;;;;9.93;9.63;;;13.40;99.90;;;;;;6263361;22;20280;-80
2023/09/22 21:18:06;;;;;;;9.70;9.40;;;13.50;99.90;;;;;;6262863;22;20203;-80
2023/09/22 21:20:33;;;;;;;9.80;9.50;;;13.50;99.90;;;;;;6263348;22;20198;-80
2023/09/22 21:23:03;;;;;;;9.90;9.60;;;13.50;99.90;;;;;;6263671;22;20190;-80
2023/09/22 21:25:31;;;;;;;9.70;9.40;;;13.50;99.90;;;;;;6262580;22;20248;-80
2023/09/22 21:27:58;;;;;;;9.60;9.30;;;13.50;99.90;;;;;;6265171;22;20209;-80
2023/09/22 21:30:25;;;;;;;9.90;9.60;;;13.50;99.90;;;;;;6263639;22;20202;-81
2023/09/22 21:32:52;;;;;;;10.10;9.80;;;13.30;99.90;;;;;;6266076;22;20249;-80
2023/09/22 21:35:19;;;;;;;9.73;9.43;;;13.30;99.90;;;;;;6266766;22;20222;-81
2023/09/22 21:37:47;;;;;;;10.00;9.70;;;13.30;99.90;;;;;;6265530;22;20217;-80
2023/09/22 21:40:16;;;;;;;9.70;9.40;;;13.30;99.90;;;;;;6265942;22;20198;-79
2023/09/22 21:42:44;;;;;;;9.90;9.60;;;13.30;99.90;;;;;;6262954;22;20206;-80
2023/09/22 21:45:11;;;;;;;9.87;9.57;;;13.40;99.90;;;;;;6263415;22;20206;-80
2023/09/22 21:47:38;;;;;;;9.73;9.43;;;13.40;99.90;;;;;;6255458;22;20201;-80
2023/09/22 21:50:07;;;;;;;9.83;9.53;;;13.40;99.90;;;;;;6256671;22;20202;-81
2023/09/22 21:52:35;;;;;;;9.97;9.67;;;13.40;99.90;;;;;;6260538;22;20253;-78
2023/09/22 21:55:02;;;;;;;10.10;9.80;;;13.30;99.90;;;;;;6257636;22;20198;-80
2023/09/22 21:57:30;;;;;;;9.90;9.60;;;13.30;99.90;;;;;;6258420;22;20288;-80
2023/09/22 22:00:00;;;;;;;9.77;9.47;;;13.30;99.90;;;;;;6258983;22;20264;-79
2023/09/22 22:02:27;;;;;;;9.80;9.50;;;13.30;99.90;;;;;;6258543;22;20191;-80
2023/09/22 22:04:57;;;;;;;9.90;9.60;;;13.30;99.90;;;;;;6259245;22;20225;-80
2023/09/22 22:07:30;;;;;;;9.60;9.30;;;13.30;99.90;;;;;;6259200;22;20201;-80
2023/09/22 22:10:00;;;;;;;9.80;9.50;;;13.30;99.90;;;;;;6258286;22;20205;-80
2023/09/22 22:12:28;;;;;;;9.73;9.43;;;13.30;99.90;;;;;;6258063;22;20274;-80
2023/09/22 22:14:55;;;;;;;9.73;9.43;;;13.30;99.90;;;;;;6258498;22;20190;-79
2023/09/22 22:17:24;;;;;;;9.73;9.43;;;13.30;99.90;;;;;;6258365;22;20257;-80
2023/09/22 22:19:52;;;;;;;10.00;9.70;;;13.30;99.90;;;;;;6258699;22;20528;-80
2023/09/22 22:22:20;;;;;;;9.67;9.37;;;13.30;99.90;;;;;;6258439;22;20195;-80
2023/09/22 22:24:48;;;;;;;10.10;9.80;;;13.30;99.90;;;;;;6259171;22;20210;-80
2023/09/22 22:27:16;;;;;;;9.90;9.60;;;13.30;99.90;;;;;;6258665;22;20210;-80
2023/09/22 22:29:46;;;;;;;10.13;9.83;;;13.20;99.90;;;;;;6258835;22;20205;-80
2023/09/22 22:32:14;;;;;;;10.10;9.80;;;13.10;99.90;;;;;;6260967;22;20212;-80
2023/09/22 22:34:44;;;;;;;9.80;9.50;;;13.10;99.90;;;;;;6268586;22;20208;-80
2023/09/22 22:37:13;;;;;;;9.57;9.27;;;13.00;99.90;;;;;;6259833;22;20221;-80
2023/09/22 22:39:40;;;;;;;10.03;9.73;;;13.00;99.90;;;;;;6259567;22;20222;-80
2023/09/22 22:42:09;;;;;;;9.70;9.40;;;12.90;99.90;;;;;;6259444;22;20190;-80
2023/09/22 22:44:37;;;;;;;9.67;9.37;;;12.90;99.90;;;;;;6259853;22;20190;-80
2023/09/22 22:47:05;;;;;;;9.70;9.40;;;12.90;99.90;;;;;;6259891;22;20213;-80
2023/09/22 22:49:33;;;;;;;9.80;9.50;;;12.90;99.90;;;;;;6259010;22;20293;-80
2023/09/22 22:52:02;;;;;;;9.70;9.40;;;12.90;99.90;;;;;;6258746;22;20194;-80
2023/09/22 22:54:30;;;;;;;10.10;9.80;;;12.90;99.90;;;;;;6258712;22;20194;-80
2023/09/22 22:56:58;;;;;;;10.03;9.73;;;12.90;99.90;;;;;;6258641;22;21020;-80
2023/09/22 22:59:25;;;;;;;9.90;9.60;;;12.90;99.90;;;;;;6258496;22;20213;-80
2023/09/22 23:01:53;;;;;;;9.57;9.27;;;12.80;99.90;;;;;;6257052;22;20206;-79
2023/09/22 23:04:21;;;;;;;9.40;9.10;;;12.80;99.90;;;;;;6258831;22;20300;-80
2023/09/22 23:06:48;;;;;;;9.77;9.47;;;12.80;99.90;;;;;;6258705;22;20221;-79
2023/09/22 23:09:18;;;;;;;9.77;9.47;;;12.70;99.90;;;;;;6258330;22;20246;-79
2023/09/22 23:11:46;;;;;;;10.00;9.70;;;12.80;99.90;;;;;;6258369;22;20206;-80
2023/09/22 23:14:17;;;;;;;10.17;9.87;;;12.70;99.90;;;;;;6259052;22;20253;-80
2023/09/22 23:16:46;;;;;;;9.80;9.50;;;12.70;99.90;;;;;;6258445;22;20198;-80
2023/09/22 23:19:14;;;;;;;9.83;9.53;;;12.70;99.90;;;;;;6258177;22;20650;-80
2023/09/22 23:21:42;;;;;;;9.93;9.63;;;12.80;99.90;;;;;;6258185;22;20193;-80
2023/09/22 23:24:12;;;;;;;9.50;9.20;;;12.80;99.90;;;;;;6258343;22;20194;-80
2023/09/22 23:26:41;;;;;;;9.73;9.43;;;12.80;99.90;;;;;;6258883;22;20218;-80
2023/09/22 23:29:10;;;;;;;9.90;9.60;;;12.80;99.90;;;;;;6259189;22;20224;-80
2023/09/22 23:31:38;;;;;;;9.73;9.43;;;12.70;99.90;;;;;;6259714;22;20274;-80
2023/09/22 23:34:05;;;;;;;9.77;9.47;;;12.70;99.90;;;;;;6258627;22;20194;-79
2023/09/22 23:36:33;;;;;;;9.80;9.50;;;12.60;99.90;;;;;;6261025;22;20194;-80
2023/09/22 23:39:02;;;;;;;10.20;9.90;;;12.60;99.90;;;;;;6261296;22;20209;-80
2023/09/22 23:41:31;;;;;;;10.10;9.80;;;12.50;99.90;;;;;;6260431;22;20190;-80
2023/09/22 23:44:00;;;;;;;10.00;9.70;;;12.50;99.90;;;;;;6260639;22;20201;-80
2023/09/22 23:46:34;;;;;;;9.90;9.60;;;12.50;99.90;;;;;;6260711;22;20210;-80
2023/09/22 23:49:05;;;;;;;9.93;9.63;;;12.50;99.90;;;;;;6259578;22;20205;-80
2023/09/22 23:51:33;;;;;;;10.00;9.70;;;12.50;99.90;;;;;;6258587;22;20321;-80
2023/09/22 23:54:01;;;;;;;9.97;9.67;;;12.40;99.90;;;;;;6258799;22;20194;-79
2023/09/22 23:56:30;;;;;;;9.80;9.50;;;12.40;99.90;;;;;;6258648;22;20199;-80
2023/09/22 23:58:59;;;;;;;9.73;9.43;;;12.40;99.90;;;;;;6257646;22;20226;-80
